Time;durP1;ratioP1;P1;durP2;ratioP2;P2;SDS_P1;SDS_P2;PMS_P1;PMS_P2;Temp;Humidity;BMP_temperature;BMP_pressure;BME280_temperature;BME280_humidity;BME280_pressure;Samples;Min_cycle;Max_cycle;Signal;HPM_P1;HPM_P2
2023/12/07 00:00:02;;;;;;;;;;;21.70;35.10;;;;;;5015718;28;19931;-54
2023/12/07 00:02:29;;;;;;;;;;;21.70;35.10;;;;;;5015731;28;19929;-54
2023/12/07 00:04:56;;;;;;;;;;;21.70;35.10;;;;;;5015531;28;19933;-52
2023/12/07 00:07:23;;;;;;;;;;;21.60;35.10;;;;;;5015354;28;19925;-53
2023/12/07 00:09:50;;;;;;;;;;;21.60;35.00;;;;;;5015611;28;19972;-49
2023/12/07 00:12:17;;;;;;;;;;;21.60;35.10;;;;;;5015120;28;20008;-49
2023/12/07 00:14:44;;;;;;;;;;;21.60;35.00;;;;;;5014833;28;19929;-48
2023/12/07 00:17:12;;;;;;;;;;;21.60;35.00;;;;;;5014783;28;19932;-47
2023/12/07 00:19:38;;;;;;;;;;;21.60;35.00;;;;;;5015044;28;20032;-49
2023/12/07 00:22:05;;;;;;;;;;;21.60;35.00;;;;;;5014857;28;19925;-48
2023/12/07 00:24:32;;;;;;;;;;;21.60;35.00;;;;;;5014808;28;19955;-50
2023/12/07 00:26:59;;;;;;;;;;;21.60;35.00;;;;;;5014897;28;19929;-49
2023/12/07 00:29:26;;;;;;;;;;;21.60;35.00;;;;;;5014810;28;19930;-49
2023/12/07 00:31:53;;;;;;;;;;;21.60;35.00;;;;;;5014680;28;20021;-50
2023/12/07 00:34:20;;;;;;;;;;;21.60;35.00;;;;;;5014810;28;19929;-50
2023/12/07 00:36:47;;;;;;;;;;;21.60;35.00;;;;;;5014439;28;19933;-49
2023/12/07 00:39:14;;;;;;;;;;;21.60;35.00;;;;;;5015017;28;19936;-50
2023/12/07 00:41:41;;;;;;;;;;;21.50;35.00;;;;;;5014534;28;20017;-52
2023/12/07 00:44:08;;;;;;;;;;;21.60;35.00;;;;;;5014566;28;20023;-51
2023/12/07 00:46:35;;;;;;;;;;;21.60;35.00;;;;;;5014802;28;19973;-48
2023/12/07 00:49:02;;;;;;;;;;;21.60;35.00;;;;;;5014125;28;19933;-50
2023/12/07 00:51:29;;;;;;;;;;;21.60;35.00;;;;;;5014438;28;19936;-48
2023/12/07 00:53:56;;;;;;;;;;;21.60;35.00;;;;;;5014714;28;19980;-48
2023/12/07 00:56:23;;;;;;;;;;;21.60;35.00;;;;;;5014178;28;20441;-48
2023/12/07 00:58:50;;;;;;;;;;;21.60;35.00;;;;;;5014549;28;20006;-49
2023/12/07 01:01:17;;;;;;;;;;;21.50;34.90;;;;;;4996857;28;19930;-50
2023/12/07 01:03:44;;;;;;;;;;;21.60;34.90;;;;;;5014534;28;19980;-48
2023/12/07 01:06:11;;;;;;;;;;;21.60;34.90;;;;;;5014498;28;19925;-50
2023/12/07 01:08:38;;;;;;;;;;;21.50;34.90;;;;;;5033660;28;20349;-50
2023/12/07 01:11:05;;;;;;;;;;;21.60;34.90;;;;;;5033590;28;20015;-49
2023/12/07 01:13:32;;;;;;;;;;;21.50;34.80;;;;;;5034122;28;19968;-48
2023/12/07 01:15:59;;;;;;;;;;;21.60;34.90;;;;;;5033976;28;19964;-47
2023/12/07 01:18:26;;;;;;;;;;;21.60;34.90;;;;;;5033599;28;19987;-48
2023/12/07 01:20:54;;;;;;;;;;;21.60;34.80;;;;;;5033629;28;19925;-48
2023/12/07 01:23:21;;;;;;;;;;;21.50;34.80;;;;;;5033514;28;19925;-54
2023/12/07 01:25:48;;;;;;;;;;;21.50;34.80;;;;;;5033976;28;19925;-49
2023/12/07 01:28:15;;;;;;;;;;;21.50;34.80;;;;;;5016309;28;19925;-49
2023/12/07 01:30:42;;;;;;;;;;;21.50;34.80;;;;;;5033730;28;19971;-53
2023/12/07 01:33:09;;;;;;;;;;;21.50;34.80;;;;;;5033639;28;19925;-53
2023/12/07 01:35:36;;;;;;;;;;;21.50;34.80;;;;;;5033385;28;20345;-52
2023/12/07 01:38:04;;;;;;;;;;;21.50;34.80;;;;;;5033712;28;19932;-54
2023/12/07 01:40:31;;;;;;;;;;;21.50;34.80;;;;;;5033624;28;20363;-52
2023/12/07 01:42:58;;;;;;;;;;;21.50;34.80;;;;;;5033266;28;19925;-54
2023/12/07 01:45:25;;;;;;;;;;;21.50;34.80;;;;;;5033652;28;19929;-54
2023/12/07 01:47:55;;;;;;;;;;;21.50;34.80;;;;;;5032755;28;20335;-53
2023/12/07 01:50:23;;;;;;;;;;;21.50;34.80;;;;;;5033211;28;19931;-50
2023/12/07 01:52:57;;;;;;;;;;;21.40;34.70;;;;;;5033553;28;19925;-47
2023/12/07 01:55:24;;;;;;;;;;;21.50;34.80;;;;;;5033174;28;20012;-53
2023/12/07 01:57:51;;;;;;;;;;;21.50;34.80;;;;;;5033161;28;19925;-51
2023/12/07 02:00:19;;;;;;;;;;;21.50;34.80;;;;;;5034103;28;19932;-54
2023/12/07 02:02:46;;;;;;;;;;;21.40;34.70;;;;;;5034020;28;20009;-52
2023/12/07 02:05:14;;;;;;;;;;;21.50;34.80;;;;;;5037598;28;20288;-48
2023/12/07 02:07:41;;;;;;;;;;;21.40;34.70;;;;;;5037226;28;19935;-50
2023/12/07 02:10:09;;;;;;;;;;;21.40;34.70;;;;;;5037224;28;20001;-53
2023/12/07 02:12:36;;;;;;;;;;;21.40;34.70;;;;;;5036986;28;20374;-49
2023/12/07 02:15:03;;;;;;;;;;;21.40;34.70;;;;;;5037279;28;20332;-48
2023/12/07 02:17:36;;;;;;;;;;;21.40;34.70;;;;;;5036831;28;19972;-50
2023/12/07 02:20:10;;;;;;;;;;;21.40;34.70;;;;;;5037157;28;19926;-49
2023/12/07 02:22:52;;;;;;;;;;;21.50;34.80;;;;;;5036917;28;19933;-48
2023/12/07 02:25:23;;;;;;;;;;;21.50;34.70;;;;;;5037220;28;19925;-48
2023/12/07 02:27:50;;;;;;;;;;;21.50;34.70;;;;;;5022656;28;19930;-54
2023/12/07 02:30:17;;;;;;;;;;;21.50;34.70;;;;;;4999836;28;19965;-48
2023/12/07 02:32:45;;;;;;;;;;;21.50;34.60;;;;;;5016908;28;20398;-51
2023/12/07 02:35:12;;;;;;;;;;;21.50;34.60;;;;;;5017170;28;19929;-47
2023/12/07 02:37:47;;;;;;;;;;;21.50;34.60;;;;;;5016778;28;20016;-49
2023/12/07 02:40:17;;;;;;;;;;;21.50;34.60;;;;;;5017110;28;19930;-48
2023/12/07 02:42:45;;;;;;;;;;;21.40;34.60;;;;;;5017053;28;20314;-49
2023/12/07 02:45:12;;;;;;;;;;;21.40;34.50;;;;;;5016701;28;19925;-49
2023/12/07 02:47:39;;;;;;;;;;;21.40;34.60;;;;;;5016498;28;20366;-48
2023/12/07 02:50:07;;;;;;;;;;;21.40;34.60;;;;;;5016909;28;20337;-49
2023/12/07 02:52:34;;;;;;;;;;;21.40;34.60;;;;;;5016843;28;19929;-50
2023/12/07 02:55:02;;;;;;;;;;;21.40;34.60;;;;;;5016292;28;19929;-48
2023/12/07 02:57:29;;;;;;;;;;;21.40;34.60;;;;;;5016780;28;19926;-47
2023/12/07 02:59:57;;;;;;;;;;;21.40;34.60;;;;;;5016599;28;20041;-48
2023/12/07 03:02:24;;;;;;;;;;;21.40;34.60;;;;;;5016275;28;20008;-48
2023/12/07 03:04:51;;;;;;;;;;;21.40;34.60;;;;;;5016781;28;20398;-49
2023/12/07 03:07:18;;;;;;;;;;;21.40;34.60;;;;;;5016155;28;20413;-51
2023/12/07 03:09:45;;;;;;;;;;;21.40;34.60;;;;;;5016407;28;19925;-49
2023/12/07 03:12:12;;;;;;;;;;;21.40;34.60;;;;;;5016606;28;19925;-54
2023/12/07 03:14:39;;;;;;;;;;;21.40;34.60;;;;;;5016227;28;20028;-51
2023/12/07 03:17:06;;;;;;;;;;;21.40;34.60;;;;;;5016354;28;20012;-52
2023/12/07 03:19:37;;;;;;;;;;;21.40;34.60;;;;;;5016470;28;20379;-55
2023/12/07 03:22:06;;;;;;;;;;;21.40;34.60;;;;;;5016047;28;19926;-56
2023/12/07 03:24:37;;;;;;;;;;;21.40;34.60;;;;;;5015882;28;19933;-55
2023/12/07 03:27:04;;;;;;;;;;;21.40;34.60;;;;;;5016219;28;20000;-51
2023/12/07 03:29:32;;;;;;;;;;;21.40;34.60;;;;;;5016068;28;19984;-51
2023/12/07 03:31:59;;;;;;;;;;;21.40;34.60;;;;;;5016087;28;19925;-52
2023/12/07 03:34:25;;;;;;;;;;;21.30;34.60;;;;;;5016317;28;20365;-52
2023/12/07 03:36:52;;;;;;;;;;;21.30;34.60;;;;;;5030682;28;20008;-55
2023/12/07 03:39:22;;;;;;;;;;;21.40;34.60;;;;;;5035931;28;20327;-50
2023/12/07 03:41:49;;;;;;;;;;;21.30;34.50;;;;;;5035461;28;20012;-49
2023/12/07 03:44:16;;;;;;;;;;;21.30;34.60;;;;;;5035718;28;19932;-52
2023/12/07 03:46:43;;;;;;;;;;;21.30;34.60;;;;;;5035737;28;19925;-53
2023/12/07 03:49:10;;;;;;;;;;;21.30;34.60;;;;;;5035454;28;20016;-48
2023/12/07 03:51:37;;;;;;;;;;;21.30;34.60;;;;;;5035353;28;20007;-54
2023/12/07 03:54:05;;;;;;;;;;;21.30;34.60;;;;;;5035640;28;19971;-50
2023/12/07 03:56:33;;;;;;;;;;;21.30;34.60;;;;;;5022048;28;20024;-53
2023/12/07 03:59:00;;;;;;;;;;;21.30;34.50;;;;;;5015420;28;20028;-48
2023/12/07 04:01:27;;;;;;;;;;;21.40;34.60;;;;;;5015626;28;19933;-51
2023/12/07 04:03:55;;;;;;;;;;;21.30;34.50;;;;;;5015777;28;20330;-53
2023/12/07 04:06:23;;;;;;;;;;;21.40;34.50;;;;;;5014864;28;19925;-52
2023/12/07 04:08:50;;;;;;;;;;;21.40;34.50;;;;;;5015440;28;20293;-48
2023/12/07 04:11:17;;;;;;;;;;;21.40;34.50;;;;;;5015503;28;19929;-54
2023/12/07 04:13:44;;;;;;;;;;;21.40;34.50;;;;;;4998134;28;20285;-52
2023/12/07 04:16:11;;;;;;;;;;;21.40;34.50;;;;;;5008017;28;19973;-48
2023/12/07 04:18:39;;;;;;;;;;;21.30;34.40;;;;;;4995578;28;20013;-54
2023/12/07 04:21:06;;;;;;;;;;;21.30;34.40;;;;;;4995635;28;19932;-52
2023/12/07 04:23:33;;;;;;;;;;;21.30;34.40;;;;;;4994876;28;20371;-54
2023/12/07 04:26:00;;;;;;;;;;;21.30;34.40;;;;;;5018116;28;19927;-49
2023/12/07 04:28:27;;;;;;;;;;;21.30;34.50;;;;;;5014924;28;20020;-53
2023/12/07 04:30:54;;;;;;;;;;;21.30;34.40;;;;;;5014870;28;19968;-50
2023/12/07 04:33:21;;;;;;;;;;;21.30;34.40;;;;;;5014587;28;20375;-49
2023/12/07 04:35:48;;;;;;;;;;;21.30;34.40;;;;;;5012506;28;19976;-50
2023/12/07 04:38:15;;;;;;;;;;;21.30;35.00;;;;;;5003841;28;20004;-52
2023/12/07 04:40:42;;;;;;;;;;;21.30;34.40;;;;;;5003935;28;19956;-52
2023/12/07 04:43:09;;;;;;;;;;;21.30;34.00;;;;;;5006160;28;20298;-53
2023/12/07 04:45:36;;;;;;;;;;;21.30;34.30;;;;;;5013868;28;19925;-50
2023/12/07 04:48:04;;;;;;;;;;;21.30;34.30;;;;;;4997377;28;19925;-48
2023/12/07 04:50:31;;;;;;;;;;;21.30;34.30;;;;;;5014302;28;19930;-49
2023/12/07 04:52:58;;;;;;;;;;;21.30;34.20;;;;;;5014481;28;19975;-54
2023/12/07 04:55:26;;;;;;;;;;;21.40;34.30;;;;;;5014358;28;19929;-54
2023/12/07 04:57:53;;;;;;;;;;;21.40;34.20;;;;;;5014603;28;19932;-53
2023/12/07 05:00:21;;;;;;;;;;;21.40;34.20;;;;;;5014333;28;20386;-55
2023/12/07 05:02:48;;;;;;;;;;;21.40;34.10;;;;;;5014328;28;19925;-53
2023/12/07 05:05:16;;;;;;;;;;;21.40;34.10;;;;;;5014169;28;19936;-56
2023/12/07 05:07:43;;;;;;;;;;;21.50;34.10;;;;;;5013796;28;19929;-51
2023/12/07 05:10:10;;;;;;;;;;;21.50;34.10;;;;;;5014466;28;19925;-55
2023/12/07 05:12:37;;;;;;;;;;;21.50;34.10;;;;;;5014025;28;20379;-54
2023/12/07 05:15:05;;;;;;;;;;;21.60;34.00;;;;;;5014429;28;20334;-54
2023/12/07 05:17:32;;;;;;;;;;;21.60;34.00;;;;;;5013940;28;19936;-51
2023/12/07 05:20:00;;;;;;;;;;;21.70;33.90;;;;;;5011555;28;19926;-52
2023/12/07 05:22:27;;;;;;;;;;;21.70;33.80;;;;;;4999365;28;20319;-48
2023/12/07 05:24:55;;;;;;;;;;;21.80;33.80;;;;;;5007767;28;19934;-48
2023/12/07 05:27:22;;;;;;;;;;;21.90;33.70;;;;;;5004226;28;19936;-48
2023/12/07 05:29:49;;;;;;;;;;;21.90;33.70;;;;;;5004067;28;19972;-49
2023/12/07 05:32:16;;;;;;;;;;;22.00;33.60;;;;;;5011071;28;19925;-49
2023/12/07 05:34:43;;;;;;;;;;;22.00;33.50;;;;;;5004587;28;19938;-49
2023/12/07 05:37:10;;;;;;;;;;;22.10;33.50;;;;;;5006959;28;19926;-49
2023/12/07 05:39:37;;;;;;;;;;;22.10;33.40;;;;;;5009197;28;19926;-49
2023/12/07 05:42:05;;;;;;;;;;;22.20;33.40;;;;;;5013077;28;19983;-48
2023/12/07 05:44:32;;;;;;;;;;;22.20;33.30;;;;;;5013201;28;19979;-53
2023/12/07 05:46:59;;;;;;;;;;;22.20;33.20;;;;;;5013630;28;19925;-49
2023/12/07 05:49:26;;;;;;;;;;;22.30;33.20;;;;;;5012871;28;19932;-52
2023/12/07 05:51:53;;;;;;;;;;;22.40;33.10;;;;;;5010681;28;20025;-53
2023/12/07 05:54:22;;;;;;;;;;;22.30;33.00;;;;;;5013739;28;19930;-50
2023/12/07 05:56:49;;;;;;;;;;;22.40;33.00;;;;;;5011835;28;19933;-54
2023/12/07 05:59:16;;;;;;;;;;;22.40;32.90;;;;;;5013269;28;19952;-54
2023/12/07 06:01:43;;;;;;;;;;;22.50;33.00;;;;;;5013214;28;19929;-48
2023/12/07 06:04:12;;;;;;;;;;;22.50;32.90;;;;;;5014471;28;19926;-48
2023/12/07 06:06:40;;;;;;;;;;;22.50;32.90;;;;;;5004754;28;19926;-54
2023/12/07 06:09:07;;;;;;;;;;;22.50;32.80;;;;;;5005276;28;19929;-53
2023/12/07 06:11:35;;;;;;;;;;;22.60;32.80;;;;;;5006702;28;19958;-51
2023/12/07 06:14:02;;;;;;;;;;;22.60;32.70;;;;;;5007375;28;19929;-54
2023/12/07 06:16:30;;;;;;;;;;;22.60;32.70;;;;;;5004248;28;19933;-58
2023/12/07 06:18:57;;;;;;;;;;;22.60;32.80;;;;;;5006799;28;19932;-54
2023/12/07 06:21:27;;;;;;;;;;;22.70;33.60;;;;;;5000639;28;20299;-56
2023/12/07 06:23:54;;;;;;;;;;;22.70;33.00;;;;;;4995606;28;19933;-51
2023/12/07 06:26:21;;;;;;;;;;;22.80;33.10;;;;;;5006947;28;20078;-56
2023/12/07 06:28:48;;;;;;;;;;;22.80;33.00;;;;;;5005966;28;20314;-55
2023/12/07 06:31:19;;;;;;;;;;;22.80;33.50;;;;;;5001172;28;19933;-54
2023/12/07 06:33:47;;;;;;;;;;;22.90;33.10;;;;;;5000868;28;19935;-56
2023/12/07 06:36:21;;;;;;;;;;;22.90;33.00;;;;;;5004996;28;19926;-55
2023/12/07 06:38:48;;;;;;;;;;;23.00;33.30;;;;;;5003795;28;19926;-56
2023/12/07 06:41:16;;;;;;;;;;;23.00;33.40;;;;;;5001814;28;19937;-56
2023/12/07 06:43:44;;;;;;;;;;;23.10;33.50;;;;;;4998496;28;20017;-56
2023/12/07 06:46:12;;;;;;;;;;;23.10;33.70;;;;;;5003608;28;20495;-55
2023/12/07 06:48:41;;;;;;;;;;;23.20;34.10;;;;;;5014405;28;19932;-53
2023/12/07 06:51:08;;;;;;;;;;;23.10;33.60;;;;;;5005136;28;19940;-52
2023/12/07 06:53:35;;;;;;;;;;;23.10;33.80;;;;;;4989462;28;19931;-52
2023/12/07 06:56:02;;;;;;;;;;;23.20;33.80;;;;;;4987257;28;19984;-56
2023/12/07 06:58:29;;;;;;;;;;;23.20;33.70;;;;;;5007373;28;19933;-53
2023/12/07 07:00:57;;;;;;;;;;;23.20;33.60;;;;;;5009122;28;20043;-51
2023/12/07 07:03:25;;;;;;;;;;;23.30;33.70;;;;;;5001967;28;19933;-49
2023/12/07 07:05:52;;;;;;;;;;;23.30;33.80;;;;;;5002064;28;20368;-57
2023/12/07 07:08:19;;;;;;;;;;;23.30;33.70;;;;;;5000910;28;19930;-55
2023/12/07 07:10:49;;;;;;;;;;;23.40;33.70;;;;;;5006012;28;19976;-55
2023/12/07 07:13:16;;;;;;;;;;;23.40;33.60;;;;;;5011227;28;19933;-56
2023/12/07 07:15:44;;;;;;;;;;;23.40;33.50;;;;;;5001044;28;20371;-55
2023/12/07 07:18:11;;;;;;;;;;;23.50;33.60;;;;;;5003086;28;19934;-53
2023/12/07 07:20:39;;;;;;;;;;;23.50;33.60;;;;;;5003052;28;19933;-55
2023/12/07 07:23:08;;;;;;;;;;;23.50;33.50;;;;;;5001446;28;19933;-56
2023/12/07 07:25:35;;;;;;;;;;;23.50;33.40;;;;;;5007033;28;19932;-56
2023/12/07 07:28:03;;;;;;;;;;;23.60;33.40;;;;;;4987767;28;19937;-52
2023/12/07 07:30:30;;;;;;;;;;;23.60;33.40;;;;;;5003441;28;20326;-54
2023/12/07 07:32:57;;;;;;;;;;;23.60;33.50;;;;;;5003461;28;19961;-51
2023/12/07 07:35:27;;;;;;;;;;;23.70;33.50;;;;;;5008430;28;19934;-50
2023/12/07 07:37:54;;;;;;;;;;;23.70;33.40;;;;;;5003595;28;20387;-49
2023/12/07 07:40:21;;;;;;;;;;;23.70;33.30;;;;;;5003903;28;19962;-49
2023/12/07 07:42:48;;;;;;;;;;;23.70;33.30;;;;;;5005973;28;19929;-52
2023/12/07 07:45:16;;;;;;;;;;;23.80;33.30;;;;;;4996742;28;19929;-53
2023/12/07 07:47:43;;;;;;;;;;;23.80;33.20;;;;;;4999039;28;19976;-51
2023/12/07 07:50:11;;;;;;;;;;;23.80;33.20;;;;;;5005338;28;20635;-54
2023/12/07 07:52:40;;;;;;;;;;;23.90;33.20;;;;;;5003840;28;19940;-48
2023/12/07 07:55:07;;;;;;;;;;;23.90;33.10;;;;;;5003953;28;19926;-54
2023/12/07 07:57:35;;;;;;;;;;;23.90;33.10;;;;;;4999667;28;20398;-54
2023/12/07 08:00:03;;;;;;;;;;;24.00;33.10;;;;;;4990138;28;20398;-52
2023/12/07 08:02:30;;;;;;;;;;;24.00;33.00;;;;;;5005682;28;20016;-50
2023/12/07 08:04:58;;;;;;;;;;;24.00;33.00;;;;;;5004377;28;20352;-52
2023/12/07 08:07:25;;;;;;;;;;;24.10;33.00;;;;;;4999235;28;19952;-49
2023/12/07 08:09:53;;;;;;;;;;;24.10;33.00;;;;;;5001864;28;19933;-52
2023/12/07 08:12:22;;;;;;;;;;;24.10;32.90;;;;;;5006674;28;20455;-48
2023/12/07 08:14:49;;;;;;;;;;;24.10;33.50;;;;;;5001982;28;19925;-53
2023/12/07 08:17:18;;;;;;;;;;;24.10;33.10;;;;;;5002616;28;19996;-53
2023/12/07 08:19:45;;;;;;;;;;;24.10;33.10;;;;;;4999882;28;20403;-55
2023/12/07 08:22:12;;;;;;;;;;;24.20;33.00;;;;;;5005650;28;19925;-53
2023/12/07 08:24:40;;;;;;;;;;;24.20;33.40;;;;;;5006071;28;19929;-56
2023/12/07 08:27:07;;;;;;;;;;;24.30;33.50;;;;;;5006691;28;20044;-54
2023/12/07 08:29:34;;;;;;;;;;;24.30;33.80;;;;;;4990656;28;19980;-52
2023/12/07 08:32:02;;;;;;;;;;;24.30;33.50;;;;;;5001800;28;20409;-56
2023/12/07 08:34:29;;;;;;;;;;;24.40;33.40;;;;;;5003044;28;20296;-55
2023/12/07 08:36:57;;;;;;;;;;;24.40;33.30;;;;;;4998430;28;20021;-54
2023/12/07 08:39:25;;;;;;;;;;;24.40;33.20;;;;;;5000420;28;20702;-50
2023/12/07 08:41:52;;;;;;;;;;;24.50;33.30;;;;;;5005048;28;19933;-55
2023/12/07 08:44:19;;;;;;;;;;;24.50;33.00;;;;;;5001036;28;20016;-54
2023/12/07 08:46:46;;;;;;;;;;;24.50;32.80;;;;;;4999816;28;19934;-61
2023/12/07 08:49:13;;;;;;;;;;;24.50;33.20;;;;;;5002356;28;19933;-58
2023/12/07 08:51:40;;;;;;;;;;;24.50;33.30;;;;;;4988957;28;20027;-59
2023/12/07 08:54:27;;;;;;;;;;;24.60;33.10;;;;;;5003292;28;19932;-52
2023/12/07 08:56:55;;;;;;;;;;;24.60;33.10;;;;;;5000833;28;20279;-50
2023/12/07 08:59:22;;;;;;;;;;;24.60;32.90;;;;;;4997277;28;19983;-59
2023/12/07 09:01:50;;;;;;;;;;;24.70;32.90;;;;;;4995705;28;19930;-57
2023/12/07 09:04:17;;;;;;;;;;;24.70;33.00;;;;;;4996738;28;20387;-56
2023/12/07 09:06:44;;;;;;;;;;;24.70;33.00;;;;;;4997233;28;19940;-57
2023/12/07 09:09:11;;;;;;;;;;;24.80;32.90;;;;;;4995956;28;21250;-56
2023/12/07 09:11:38;;;;;;;;;;;24.80;33.00;;;;;;4997612;28;19989;-58
2023/12/07 09:14:05;;;;;;;;;;;24.90;32.90;;;;;;4998857;28;19936;-59
2023/12/07 09:16:42;;;;;;;;;;;24.90;33.00;;;;;;5004372;28;19925;-56
2023/12/07 09:19:09;;;;;;;;;;;25.00;32.80;;;;;;5001341;28;19969;-57
2023/12/07 09:21:36;;;;;;;;;;;25.00;32.50;;;;;;4994008;28;19940;-53
2023/12/07 09:24:03;;;;;;;;;;;25.10;32.50;;;;;;5000142;28;19968;-57
2023/12/07 09:26:30;;;;;;;;;;;25.10;32.30;;;;;;5002070;28;19932;-58
2023/12/07 09:28:57;;;;;;;;;;;25.10;32.40;;;;;;4986410;28;19933;-55
2023/12/07 09:31:24;;;;;;;;;;;25.20;32.40;;;;;;5004333;28;19944;-55
2023/12/07 09:33:53;;;;;;;;;;;25.20;32.40;;;;;;4999846;28;20315;-55
2023/12/07 09:36:24;;;;;;;;;;;25.30;32.30;;;;;;5005238;28;19936;-56
2023/12/07 09:38:51;;;;;;;;;;;25.30;32.30;;;;;;5002643;28;20386;-57
2023/12/07 09:41:18;;;;;;;;;;;25.40;32.40;;;;;;5005981;28;20349;-57
2023/12/07 09:43:45;;;;;;;;;;;25.40;32.30;;;;;;5005204;28;19975;-58
2023/12/07 09:46:13;;;;;;;;;;;25.50;32.20;;;;;;5000417;28;20295;-58
2023/12/07 09:48:42;;;;;;;;;;;25.50;32.10;;;;;;4982395;28;19988;-57
2023/12/07 09:51:11;;;;;;;;;;;25.60;32.00;;;;;;5002597;28;20271;-56
2023/12/07 09:53:39;;;;;;;;;;;25.60;31.90;;;;;;5004834;28;19926;-57
2023/12/07 09:56:06;;;;;;;;;;;25.70;31.90;;;;;;4999856;28;19933;-56
2023/12/07 09:58:33;;;;;;;;;;;25.70;31.90;;;;;;5005790;28;20012;-55
2023/12/07 10:01:07;;;;;;;;;;;25.70;31.90;;;;;;5004237;28;19930;-58
2023/12/07 10:03:34;;;;;;;;;;;25.70;32.50;;;;;;5003741;28;19929;-58
2023/12/07 10:06:02;;;;;;;;;;;25.70;31.90;;;;;;5003023;28;20103;-58
2023/12/07 10:08:30;;;;;;;;;;;25.70;31.90;;;;;;5001504;28;19948;-58
2023/12/07 10:11:04;;;;;;;;;;;25.70;31.80;;;;;;5003116;28;19976;-56
2023/12/07 10:13:33;;;;;;;;;;;25.70;31.80;;;;;;5002626;28;20434;-54
2023/12/07 10:16:08;;;;;;;;;;;25.80;31.70;;;;;;5003947;28;19933;-59
2023/12/07 10:18:35;;;;;;;;;;;25.90;31.70;;;;;;5003197;28;20631;-57
2023/12/07 10:21:04;;;;;;;;;;;25.90;31.50;;;;;;4986225;28;19935;-54
2023/12/07 10:23:31;;;;;;;;;;;25.90;31.50;;;;;;5011031;28;19926;-57
2023/12/07 10:26:00;;;;;;;;;;;26.00;31.50;;;;;;5006317;28;19929;-58
2023/12/07 10:28:27;;;;;;;;;;;26.00;31.50;;;;;;5003870;28;20358;-58
2023/12/07 10:30:54;;;;;;;;;;;26.10;31.50;;;;;;4993874;28;19956;-59
2023/12/07 10:33:21;;;;;;;;;;;26.10;31.40;;;;;;5005013;28;19933;-58
2023/12/07 10:35:49;;;;;;;;;;;26.10;31.40;;;;;;5005345;28;19933;-57
2023/12/07 10:38:17;;;;;;;;;;;26.00;31.40;;;;;;5001177;28;19937;-57
2023/12/07 10:40:46;;;;;;;;;;;26.10;31.50;;;;;;5004915;28;19943;-56
2023/12/07 10:43:15;;;;;;;;;;;26.10;31.40;;;;;;5005797;28;19926;-58
2023/12/07 10:45:43;;;;;;;;;;;26.10;31.30;;;;;;5003454;28;19930;-57
2023/12/07 10:48:11;;;;;;;;;;;26.00;31.20;;;;;;5002748;28;19945;-57
2023/12/07 10:50:43;;;;;;;;;;;26.10;31.20;;;;;;5007632;28;19940;-58
2023/12/07 10:53:22;;;;;;;;;;;26.10;31.20;;;;;;5005298;28;19925;-56
2023/12/07 10:55:56;;;;;;;;;;;26.10;31.20;;;;;;5005892;28;20488;-56
2023/12/07 10:58:25;;;;;;;;;;;26.10;31.10;;;;;;5005170;28;19936;-57
2023/12/07 11:00:53;;;;;;;;;;;26.10;31.00;;;;;;5004725;28;19945;-58
2023/12/07 11:03:23;;;;;;;;;;;26.10;30.90;;;;;;5007149;28;20391;-58
2023/12/07 11:05:51;;;;;;;;;;;26.10;30.80;;;;;;5005634;28;19930;-60
2023/12/07 11:08:28;;;;;;;;;;;26.10;30.90;;;;;;5002209;28;19934;-53
2023/12/07 11:11:06;;;;;;;;;;;26.10;30.90;;;;;;5005037;28;19953;-60
2023/12/07 11:13:35;;;;;;;;;;;26.10;30.90;;;;;;5009148;28;19980;-54
2023/12/07 11:16:02;;;;;;;;;;;26.10;31.00;;;;;;5009367;28;19926;-55
2023/12/07 11:18:30;;;;;;;;;;;26.10;31.00;;;;;;5009163;28;19959;-54
2023/12/07 11:20:58;;;;;;;;;;;26.10;30.90;;;;;;5011027;28;20382;-55
2023/12/07 11:23:26;;;;;;;;;;;26.10;30.90;;;;;;5006118;28;19984;-54
2023/12/07 11:25:55;;;;;;;;;;;26.10;31.30;;;;;;5007570;28;19925;-57
2023/12/07 11:28:35;;;;;;;;;;;26.10;30.90;;;;;;5002684;28;20034;-58
2023/12/07 11:31:03;;;;;;;;;;;26.10;30.90;;;;;;5003904;28;19925;-58
2023/12/07 11:33:31;;;;;;;;;;;26.10;30.90;;;;;;5002940;28;20382;-56
2023/12/07 11:36:06;;;;;;;;;;;26.10;31.00;;;;;;5005083;28;20016;-58
2023/12/07 11:38:34;;;;;;;;;;;26.10;31.00;;;;;;5003519;28;19925;-58
2023/12/07 11:41:02;;;;;;;;;;;26.10;31.20;;;;;;5007815;28;20350;-56
2023/12/07 11:43:40;;;;;;;;;;;26.10;31.40;;;;;;5002611;28;19931;-55
2023/12/07 11:46:07;;;;;;;;;;;26.10;31.40;;;;;;5012317;28;20321;-58
2023/12/07 11:48:35;;;;;;;;;;;26.10;31.30;;;;;;5011990;28;20579;-55
2023/12/07 11:51:06;;;;;;;;;;;26.10;31.30;;;;;;5001143;28;19932;-55
2023/12/07 11:53:37;;;;;;;;;;;26.10;31.20;;;;;;5003079;28;20268;-54
2023/12/07 11:56:05;;;;;;;;;;;26.10;31.00;;;;;;4983835;28;19930;-56
2023/12/07 11:58:33;;;;;;;;;;;26.10;31.00;;;;;;5003513;28;19944;-55
2023/12/07 12:01:05;;;;;;;;;;;26.10;31.50;;;;;;5004472;28;19925;-55
2023/12/07 12:03:32;;;;;;;;;;;26.10;30.90;;;;;;5004834;28;19925;-56
2023/12/07 12:05:59;;;;;;;;;;;26.20;30.90;;;;;;5005751;28;19984;-55
2023/12/07 12:08:27;;;;;;;;;;;26.20;30.80;;;;;;4999840;28;19933;-55
2023/12/07 12:10:56;;;;;;;;;;;26.20;30.80;;;;;;5007795;28;19926;-57
2023/12/07 12:13:29;;;;;;;;;;;26.20;31.00;;;;;;5006236;28;19933;-54
2023/12/07 12:15:57;;;;;;;;;;;26.20;31.00;;;;;;5005948;28;19931;-57
2023/12/07 12:18:29;;;;;;;;;;;26.20;31.00;;;;;;5000293;28;20012;-54
2023/12/07 12:21:00;;;;;;;;;;;26.20;31.00;;;;;;5002192;28;19925;-54
2023/12/07 12:23:27;;;;;;;;;;;26.20;31.10;;;;;;5004926;28;20017;-53
2023/12/07 12:25:56;;;;;;;;;;;26.20;31.00;;;;;;4989188;28;19971;-56
2023/12/07 12:28:24;;;;;;;;;;;26.10;31.00;;;;;;5000859;28;20104;-54
2023/12/07 12:30:52;;;;;;;;;;;26.10;30.90;;;;;;5003957;28;19950;-55
2023/12/07 12:33:19;;;;;;;;;;;26.10;31.00;;;;;;5009418;28;19936;-55
2023/12/07 12:35:46;;;;;;;;;;;26.10;31.10;;;;;;4999937;28;19930;-56
2023/12/07 12:38:13;;;;;;;;;;;26.10;31.10;;;;;;5004813;28;20445;-59
2023/12/07 12:40:53;;;;;;;;;;;26.10;31.00;;;;;;4999865;28;19933;-56
2023/12/07 12:43:21;;;;;;;;;;;26.10;31.00;;;;;;4998721;28;19929;-57
2023/12/07 12:45:49;;;;;;;;;;;26.10;30.90;;;;;;5000970;28;19984;-56
2023/12/07 12:48:32;;;;;;;;;;;26.10;30.90;;;;;;5003239;28;19941;-56
2023/12/07 12:51:07;;;;;;;;;;;26.10;30.90;;;;;;4999657;28;19933;-53
2023/12/07 12:53:35;;;;;;;;;;;26.00;30.80;;;;;;5002565;28;20314;-55
2023/12/07 12:56:03;;;;;;;;;;;26.00;30.90;;;;;;5001019;28;19926;-58
2023/12/07 12:58:30;;;;;;;;;;;26.00;30.90;;;;;;4990266;28;19930;-58
2023/12/07 13:00:57;;;;;;;;;;;26.10;31.00;;;;;;5000215;28;19925;-53
2023/12/07 13:03:25;;;;;;;;;;;26.00;30.90;;;;;;5004196;28;19933;-52
2023/12/07 13:05:53;;;;;;;;;;;26.00;30.80;;;;;;5002857;28;19944;-55
2023/12/07 13:08:21;;;;;;;;;;;26.00;30.80;;;;;;4993789;28;19940;-49
2023/12/07 13:10:48;;;;;;;;;;;26.10;30.90;;;;;;4984285;28;19933;-54
2023/12/07 13:13:15;;;;;;;;;;;26.00;31.00;;;;;;4993964;28;19933;-55
2023/12/07 13:15:42;;;;;;;;;;;26.10;31.00;;;;;;4969500;28;19932;-49
2023/12/07 13:18:09;;;;;;;;;;;26.10;30.80;;;;;;4987526;28;19933;-55
2023/12/07 13:20:37;;;;;;;;;;;26.10;30.90;;;;;;4981997;28;20015;-52
2023/12/07 13:23:07;;;;;;;;;;;26.10;31.00;;;;;;5000831;28;20506;-54
2023/12/07 13:25:34;;;;;;;;;;;26.00;30.90;;;;;;5000405;28;20476;-52
2023/12/07 13:28:01;;;;;;;;;;;26.00;30.80;;;;;;5003646;28;19987;-56
2023/12/07 13:30:29;;;;;;;;;;;25.90;30.80;;;;;;5000676;28;19968;-57
2023/12/07 13:32:56;;;;;;;;;;;26.00;30.80;;;;;;4996337;28;19940;-54
2023/12/07 13:35:24;;;;;;;;;;;25.90;30.80;;;;;;4998457;28;20287;-55
2023/12/07 13:37:51;;;;;;;;;;;25.90;30.70;;;;;;5000148;28;20286;-53
2023/12/07 13:40:18;;;;;;;;;;;25.90;30.60;;;;;;5000376;28;20653;-55
2023/12/07 13:42:45;;;;;;;;;;;25.90;30.70;;;;;;4992584;28;20686;-53
2023/12/07 13:45:13;;;;;;;;;;;25.90;30.60;;;;;;4981032;28;20501;-53
2023/12/07 13:47:40;;;;;;;;;;;25.90;31.00;;;;;;4999978;28;20753;-52
2023/12/07 13:50:08;;;;;;;;;;;25.90;30.40;;;;;;4976240;28;19965;-56
2023/12/07 13:52:35;;;;;;;;;;;25.90;30.40;;;;;;4994818;28;20743;-55
2023/12/07 13:55:02;;;;;;;;;;;25.90;30.60;;;;;;4992335;28;20374;-55
2023/12/07 13:57:29;;;;;;;;;;;25.80;31.10;;;;;;4992053;28;19933;-55
2023/12/07 13:59:56;;;;;;;;;;;25.80;30.50;;;;;;4998446;28;20411;-58
2023/12/07 14:02:25;;;;;;;;;;;25.80;30.40;;;;;;4973445;28;19980;-52
2023/12/07 14:04:52;;;;;;;;;;;25.80;30.40;;;;;;5001135;28;20568;-53
2023/12/07 14:07:20;;;;;;;;;;;25.80;30.40;;;;;;5001329;28;19940;-53
2023/12/07 14:09:49;;;;;;;;;;;25.80;30.30;;;;;;4999284;28;20177;-51
2023/12/07 14:12:25;;;;;;;;;;;25.70;30.40;;;;;;5000885;28;19933;-53
2023/12/07 14:14:55;;;;;;;;;;;25.70;30.50;;;;;;5002296;28;20184;-53
2023/12/07 14:17:22;;;;;;;;;;;25.70;30.50;;;;;;5000684;28;19944;-50
2023/12/07 14:20:04;;;;;;;;;;;25.60;30.70;;;;;;5000254;28;20094;-56